Ryuhomaru — JD2639 — position and weather

sailwx.info

Track history (hours):
 
Tides and Currents Weather Stations Pressure Air Temp Water Temp Dewpoint Dewpoint Depression Visibility Wind Speed Wind Dir Waves Ship Positions

Ryuhomaru

Last reported at 2017-Mar-30 21:27 UTC. Time now 2017-Mar-30 22:32 UTC.
Position N 34°33' E 135°27'.

Length 42 m; draft 3.5 m.

Type: Tug. MMSI: 431000586.

Date/timePositionNaut miles runAvg speedWind from/ knotsBaromVisibWave heightAir tempDewpointWater temp
2017-Mar-30 21:27N 34°33' E 135°27'0 0.0
2017-Mar-30 20:33N 34°33' E 135°27'0 0.0
2017-Mar-30 06:24N 34°33' E 135°27'0 0.0
2017-Mar-30 03:22N 34°33' E 135°27'0 0.0
2017-Mar-30 02:32N 34°33' E 135°27'6 6.2
2017-Mar-30 01:33N 34°39' E 135°24'2 1.6
2017-Mar-30 00:33N 34°38' E 135°23'4 3.9
2017-Mar-29 23:30N 34°34' E 135°24'1 1.1
2017-Mar-29 22:32N 34°33' E 135°26'1 0.9
2017-Mar-29 21:33N 34°33' E 135°27'0 0.0
2017-Mar-29 08:29N 34°33' E 135°27'0 0.5
2017-Mar-29 07:33N 34°33' E 135°26'1 0.5
2017-Mar-29 06:30N 34°33' E 135°25'4 4.2
2017-Mar-29 05:33N 34°34' E 135°21'5 5.0
2017-Mar-29 04:33N 34°33' E 135°27'0 0.0
2017-Mar-29 03:33N 34°33' E 135°27'0 0.0
2017-Mar-29 02:32N 34°33' E 135°27'0 0.0
2017-Mar-29 01:23N 34°33' E 135°27'0 0.0
2017-Mar-29 00:28N 34°33' E 135°27'0 0.0
2017-Mar-28 23:32N 34°33' E 135°27'0 0.0
2017-Mar-27 09:33N 34°33' E 135°27'3 2.5
2017-Mar-27 08:33N 34°32' E 135°24'0 0.0
2017-Mar-26 22:28N 34°32' E 135°24'1 1.5
2017-Mar-26 21:33N 34°33' E 135°23'3 2.6
2017-Mar-26 20:33N 34°33' E 135°27'0 0.0
2017-Mar-26 19:31N 34°33' E 135°27'0 0.0
2017-Mar-26 04:10N 34°33' E 135°27'2 1.0
2017-Mar-26 02:17N 34°34' E 135°24'4 4.4
2017-Mar-26 01:26N 34°33' E 135°20'2 1.7
2017-Mar-26 00:33N 34°34' E 135°22'4 2.8
2017-Mar-25 23:04N 34°33' E 135°27'0 0.0
2017-Mar-25 09:10N 34°33' E 135°27'4 6.2
2017-Mar-25 08:33N 34°33' E 135°22'2 1.3
2017-Mar-25 07:06N 34°34' E 135°24'0 0.1
2017-Mar-25 06:32N 34°34' E 135°24'0 0.1
2017-Mar-25 05:18N 34°34' E 135°24'0 0.1
2017-Mar-25 04:33N 34°34' E 135°24'0 0.1
2017-Mar-25 03:32N 34°34' E 135°24'0 0.0
2017-Mar-25 02:19N 34°34' E 135°24'0 0.1
2017-Mar-25 01:30N 34°34' E 135°24'0 0.1
2017-Mar-25 00:32N 34°34' E 135°24'0 0.1
2017-Mar-24 23:25N 34°34' E 135°24'0 0.0
2017-Mar-24 22:32N 34°34' E 135°24'0 0.1
2017-Mar-24 21:28N 34°34' E 135°24'0 0.0
2017-Mar-24 20:24N 34°34' E 135°24'0 0.1
2017-Mar-24 19:26N 34°34' E 135°24'0 0.1
2017-Mar-24 18:33N 34°34' E 135°24'0 0.2
2017-Mar-24 17:25N 34°34' E 135°24'0 0.2
2017-Mar-24 16:31N 34°34' E 135°24'0 0.1
2017-Mar-24 15:33N 34°34' E 135°24'0 0.0
2017-Mar-24 14:33N 34°34' E 135°24'0 0.1
2017-Mar-24 13:32N 34°34' E 135°24'0 0.0
2017-Mar-24 12:34N 34°34' E 135°24'0 0.0
2017-Mar-24 11:33N 34°34' E 135°24'0 0.0
2017-Mar-24 10:33N 34°34' E 135°24'0 0.0
2017-Mar-24 09:31N 34°34' E 135°24'0 0.0
2017-Mar-24 08:32N 34°34' E 135°24'0 0.0
2017-Mar-24 06:25N 34°34' E 135°24'0 0.0
2017-Mar-24 04:31N 34°34' E 135°24'0 0.2
2017-Mar-24 03:34N 34°34' E 135°24'0 0.1
2017-Mar-24 02:28N 34°34' E 135°24'0 0.1
2017-Mar-24 01:23N 34°34' E 135°24'0 0.1
2017-Mar-24 00:07N 34°34' E 135°24'0 0.0
2017-Mar-23 23:25N 34°34' E 135°24'4 4.3
2017-Mar-23 22:33N 34°33' E 135°20'5 4.7
2017-Mar-23 21:33N 34°33' E 135°26'1 0.7
2017-Mar-23 20:33N 34°33' E 135°27'0 0.0
2017-Mar-23 07:09N 34°33' E 135°27'3 5.0
2017-Mar-23 06:33N 34°32' E 135°23'3 2.8
2017-Mar-23 05:29N 34°33' E 135°27'0 0.1
2017-Mar-23 04:33N 34°33' E 135°27'0 0.0
2017-Mar-23 03:33N 34°33' E 135°27'0 0.0
2017-Mar-23 02:33N 34°33' E 135°27'0 0.0
2017-Mar-23 01:33N 34°33' E 135°27'0 0.0
2017-Mar-23 00:32N 34°33' E 135°27'0 0.0
2017-Mar-22 23:32N 34°33' E 135°27'0 0.0
2017-Mar-21 06:33N 34°33' E 135°27'1 0.7
2017-Mar-21 05:32N 34°33' E 135°26'1 0.9
2017-Mar-21 04:32N 34°33' E 135°25'4 3.7
2017-Mar-21 03:33N 34°34' E 135°20'3 3.1
2017-Mar-21 02:27N 34°34' E 135°24'0 0.4
2017-Mar-21 01:32N 34°34' E 135°24'5 2.6
2017-Mar-20 23:33N 34°29' E 135°22'0 0.2
2017-Mar-20 22:26N 34°29' E 135°22'1 0.7
2017-Mar-20 21:33N 34°30' E 135°22'  
Track history (hours):
 
Tides and Currents Weather Stations Pressure Air Temp Water Temp Dewpoint Dewpoint Depression Visibility Wind Speed Wind Dir Waves Ship Positions

Ryuhomaru

Last reported at 2017-Mar-30 21:27 UTC. Time now 2017-Mar-30 22:32 UTC.
Position N 34°33' E 135°27'.

Length 42 m; draft 3.5 m.

Type: Tug. MMSI: 431000586.

Date/timePositionNaut miles runAvg speedWind from/ knotsBaromVisibWave heightAir tempDewpointWater temp
2017-Mar-30 21:27N 34°33' E 135°27'0 0.0
2017-Mar-30 20:33N 34°33' E 135°27'0 0.0
2017-Mar-30 06:24N 34°33' E 135°27'0 0.0
2017-Mar-30 03:22N 34°33' E 135°27'0 0.0
2017-Mar-30 02:32N 34°33' E 135°27'6 6.2
2017-Mar-30 01:33N 34°39' E 135°24'2 1.6
2017-Mar-30 00:33N 34°38' E 135°23'4 3.9
2017-Mar-29 23:30N 34°34' E 135°24'1 1.1
2017-Mar-29 22:32N 34°33' E 135°26'1 0.9
2017-Mar-29 21:33N 34°33' E 135°27'0 0.0
2017-Mar-29 08:29N 34°33' E 135°27'0 0.5
2017-Mar-29 07:33N 34°33' E 135°26'1 0.5
2017-Mar-29 06:30N 34°33' E 135°25'4 4.2
2017-Mar-29 05:33N 34°34' E 135°21'5 5.0
2017-Mar-29 04:33N 34°33' E 135°27'0 0.0
2017-Mar-29 03:33N 34°33' E 135°27'0 0.0
2017-Mar-29 02:32N 34°33' E 135°27'0 0.0
2017-Mar-29 01:23N 34°33' E 135°27'0 0.0
2017-Mar-29 00:28N 34°33' E 135°27'0 0.0
2017-Mar-28 23:32N 34°33' E 135°27'0 0.0
2017-Mar-27 09:33N 34°33' E 135°27'3 2.5
2017-Mar-27 08:33N 34°32' E 135°24'0 0.0
2017-Mar-26 22:28N 34°32' E 135°24'1 1.5
2017-Mar-26 21:33N 34°33' E 135°23'3 2.6
2017-Mar-26 20:33N 34°33' E 135°27'0 0.0
2017-Mar-26 19:31N 34°33' E 135°27'0 0.0
2017-Mar-26 04:10N 34°33' E 135°27'2 1.0
2017-Mar-26 02:17N 34°34' E 135°24'4 4.4
2017-Mar-26 01:26N 34°33' E 135°20'2 1.7
2017-Mar-26 00:33N 34°34' E 135°22'4 2.8
2017-Mar-25 23:04N 34°33' E 135°27'0 0.0
2017-Mar-25 09:10N 34°33' E 135°27'4 6.2
2017-Mar-25 08:33N 34°33' E 135°22'2 1.3
2017-Mar-25 07:06N 34°34' E 135°24'0 0.1
2017-Mar-25 06:32N 34°34' E 135°24'0 0.1
2017-Mar-25 05:18N 34°34' E 135°24'0 0.1
2017-Mar-25 04:33N 34°34' E 135°24'0 0.1
2017-Mar-25 03:32N 34°34' E 135°24'0 0.0
2017-Mar-25 02:19N 34°34' E 135°24'0 0.1
2017-Mar-25 01:30N 34°34' E 135°24'0 0.1
2017-Mar-25 00:32N 34°34' E 135°24'0 0.1
2017-Mar-24 23:25N 34°34' E 135°24'0 0.0
2017-Mar-24 22:32N 34°34' E 135°24'0 0.1
2017-Mar-24 21:28N 34°34' E 135°24'0 0.0
2017-Mar-24 20:24N 34°34' E 135°24'0 0.1
2017-Mar-24 19:26N 34°34' E 135°24'0 0.1
2017-Mar-24 18:33N 34°34' E 135°24'0 0.2
2017-Mar-24 17:25N 34°34' E 135°24'0 0.2
2017-Mar-24 16:31N 34°34' E 135°24'0 0.1
2017-Mar-24 15:33N 34°34' E 135°24'0 0.0
2017-Mar-24 14:33N 34°34' E 135°24'0 0.1
2017-Mar-24 13:32N 34°34' E 135°24'0 0.0
2017-Mar-24 12:34N 34°34' E 135°24'0 0.0
2017-Mar-24 11:33N 34°34' E 135°24'0 0.0
2017-Mar-24 10:33N 34°34' E 135°24'0 0.0
2017-Mar-24 09:31N 34°34' E 135°24'0 0.0
2017-Mar-24 08:32N 34°34' E 135°24'0 0.0
2017-Mar-24 06:25N 34°34' E 135°24'0 0.0
2017-Mar-24 04:31N 34°34' E 135°24'0 0.2
2017-Mar-24 03:34N 34°34' E 135°24'0 0.1
2017-Mar-24 02:28N 34°34' E 135°24'0 0.1
2017-Mar-24 01:23N 34°34' E 135°24'0 0.1
2017-Mar-24 00:07N 34°34' E 135°24'0 0.0
2017-Mar-23 23:25N 34°34' E 135°24'4 4.3
2017-Mar-23 22:33N 34°33' E 135°20'5 4.7
2017-Mar-23 21:33N 34°33' E 135°26'1 0.7
2017-Mar-23 20:33N 34°33' E 135°27'0 0.0
2017-Mar-23 07:09N 34°33' E 135°27'3 5.0
2017-Mar-23 06:33N 34°32' E 135°23'3 2.8
2017-Mar-23 05:29N 34°33' E 135°27'0 0.1
2017-Mar-23 04:33N 34°33' E 135°27'0 0.0
2017-Mar-23 03:33N 34°33' E 135°27'0 0.0
2017-Mar-23 02:33N 34°33' E 135°27'0 0.0
2017-Mar-23 01:33N 34°33' E 135°27'0 0.0
2017-Mar-23 00:32N 34°33' E 135°27'0 0.0
2017-Mar-22 23:32N 34°33' E 135°27'0 0.0
2017-Mar-21 06:33N 34°33' E 135°27'1 0.7
2017-Mar-21 05:32N 34°33' E 135°26'1 0.9
2017-Mar-21 04:32N 34°33' E 135°25'4 3.7
2017-Mar-21 03:33N 34°34' E 135°20'3 3.1
2017-Mar-21 02:27N 34°34' E 135°24'0 0.4
2017-Mar-21 01:32N 34°34' E 135°24'5 2.6
2017-Mar-20 23:33N 34°29' E 135°22'0 0.2
2017-Mar-20 22:26N 34°29' E 135°22'1 0.7
2017-Mar-20 21:33N 34°30' E 135°22'  

Dump ship's entire track history